sensor_id;sensor_type;location;lat;lon;timestamp;P1;durP1;ratioP1;P2;durP2;ratioP2
35306;SDS011;21420;52.196;21.416;2022-07-12T00:02:20;2.02;;;1.70;;
35306;SDS011;21420;52.196;21.416;2022-07-12T00:04:46;2.22;;;1.27;;
35306;SDS011;21420;52.196;21.416;2022-07-12T00:07:13;2.80;;;1.65;;
35306;SDS011;21420;52.196;21.416;2022-07-12T00:09:39;1.80;;;1.47;;
35306;SDS011;21420;52.196;21.416;2022-07-12T00:12:05;1.45;;;1.35;;
35306;SDS011;21420;52.196;21.416;2022-07-12T00:14:31;1.65;;;1.40;;
35306;SDS011;21420;52.196;21.416;2022-07-12T00:16:58;2.77;;;1.72;;
35306;SDS011;21420;52.196;21.416;2022-07-12T00:19:24;2.77;;;1.50;;
35306;SDS011;21420;52.196;21.416;2022-07-12T00:21:50;2.40;;;1.67;;
35306;SDS011;21420;52.196;21.416;2022-07-12T00:24:17;4.20;;;1.70;;
35306;SDS011;21420;52.196;21.416;2022-07-12T00:26:43;2.67;;;1.55;;
35306;SDS011;21420;52.196;21.416;2022-07-12T00:29:10;1.65;;;1.45;;
35306;SDS011;21420;52.196;21.416;2022-07-12T00:31:36;4.97;;;1.50;;
35306;SDS011;21420;52.196;21.416;2022-07-12T00:34:03;2.75;;;1.30;;
35306;SDS011;21420;52.196;21.416;2022-07-12T00:36:29;1.30;;;1.20;;
35306;SDS011;21420;52.196;21.416;2022-07-12T00:38:55;2.02;;;1.40;;
35306;SDS011;21420;52.196;21.416;2022-07-12T00:41:22;3.50;;;1.30;;
35306;SDS011;21420;52.196;21.416;2022-07-12T00:43:48;3.30;;;1.80;;
35306;SDS011;21420;52.196;21.416;2022-07-12T00:46:14;5.95;;;1.47;;
35306;SDS011;21420;52.196;21.416;2022-07-12T00:48:46;4.87;;;1.42;;
35306;SDS011;21420;52.196;21.416;2022-07-12T00:51:12;2.58;;;1.60;;
35306;SDS011;21420;52.196;21.416;2022-07-12T00:53:38;2.10;;;1.52;;
35306;SDS011;21420;52.196;21.416;2022-07-12T00:56:05;1.72;;;1.37;;
35306;SDS011;21420;52.196;21.416;2022-07-12T00:58:31;3.10;;;1.52;;
35306;SDS011;21420;52.196;21.416;2022-07-12T01:00:58;4.10;;;1.65;;
35306;SDS011;21420;52.196;21.416;2022-07-12T01:03:25;2.65;;;1.60;;
35306;SDS011;21420;52.196;21.416;2022-07-12T01:05:52;3.37;;;2.08;;
35306;SDS011;21420;52.196;21.416;2022-07-12T01:08:19;2.00;;;1.70;;
35306;SDS011;21420;52.196;21.416;2022-07-12T01:10:45;3.62;;;1.72;;
35306;SDS011;21420;52.196;21.416;2022-07-12T01:13:14;7.78;;;1.72;;
35306;SDS011;21420;52.196;21.416;2022-07-12T01:15:42;4.67;;;1.85;;
35306;SDS011;21420;52.196;21.416;2022-07-12T01:18:09;2.67;;;1.80;;
35306;SDS011;21420;52.196;21.416;2022-07-12T01:20:36;2.20;;;1.77;;
35306;SDS011;21420;52.196;21.416;2022-07-12T01:23:03;3.10;;;1.57;;
35306;SDS011;21420;52.196;21.416;2022-07-12T01:25:30;3.77;;;1.77;;
35306;SDS011;21420;52.196;21.416;2022-07-12T01:27:56;2.80;;;1.67;;
35306;SDS011;21420;52.196;21.416;2022-07-12T01:30:23;3.08;;;1.72;;
35306;SDS011;21420;52.196;21.416;2022-07-12T01:32:49;4.83;;;2.08;;
35306;SDS011;21420;52.196;21.416;2022-07-12T01:35:16;4.40;;;1.87;;
35306;SDS011;21420;52.196;21.416;2022-07-12T01:37:43;5.35;;;1.72;;
35306;SDS011;21420;52.196;21.416;2022-07-12T01:40:15;3.35;;;1.70;;
35306;SDS011;21420;52.196;21.416;2022-07-12T01:42:39;3.00;;;2.00;;
35306;SDS011;21420;52.196;21.416;2022-07-12T01:45:07;2.10;;;1.60;;
35306;SDS011;21420;52.196;21.416;2022-07-12T01:47:34;2.17;;;1.70;;
35306;SDS011;21420;52.196;21.416;2022-07-12T01:50:03;3.65;;;1.80;;
35306;SDS011;21420;52.196;21.416;2022-07-12T01:52:32;2.98;;;1.82;;
35306;SDS011;21420;52.196;21.416;2022-07-12T01:54:59;3.00;;;1.80;;
35306;SDS011;21420;52.196;21.416;2022-07-12T01:57:26;2.20;;;1.95;;
35306;SDS011;21420;52.196;21.416;2022-07-12T01:59:53;5.90;;;1.75;;
35306;SDS011;21420;52.196;21.416;2022-07-12T02:02:20;2.80;;;1.90;;
35306;SDS011;21420;52.196;21.416;2022-07-12T02:04:48;4.08;;;2.10;;
35306;SDS011;21420;52.196;21.416;2022-07-12T02:07:14;3.95;;;2.25;;
35306;SDS011;21420;52.196;21.416;2022-07-12T02:09:40;5.00;;;2.10;;
35306;SDS011;21420;52.196;21.416;2022-07-12T02:12:06;3.02;;;2.17;;
35306;SDS011;21420;52.196;21.416;2022-07-12T02:14:33;3.42;;;1.90;;
35306;SDS011;21420;52.196;21.416;2022-07-12T02:16:59;4.40;;;1.92;;
35306;SDS011;21420;52.196;21.416;2022-07-12T02:19:25;2.90;;;1.80;;
35306;SDS011;21420;52.196;21.416;2022-07-12T02:21:51;2.47;;;2.10;;
35306;SDS011;21420;52.196;21.416;2022-07-12T02:24:18;2.65;;;2.12;;
35306;SDS011;21420;52.196;21.416;2022-07-12T02:26:44;3.55;;;2.83;;
35306;SDS011;21420;52.196;21.416;2022-07-12T02:29:10;3.87;;;2.55;;
35306;SDS011;21420;52.196;21.416;2022-07-12T02:31:36;4.25;;;2.33;;
35306;SDS011;21420;52.196;21.416;2022-07-12T02:34:03;3.30;;;2.27;;
35306;SDS011;21420;52.196;21.416;2022-07-12T02:36:29;9.58;;;2.75;;
35306;SDS011;21420;52.196;21.416;2022-07-12T02:38:55;5.30;;;2.62;;
35306;SDS011;21420;52.196;21.416;2022-07-12T02:41:22;3.75;;;3.25;;
35306;SDS011;21420;52.196;21.416;2022-07-12T02:43:48;6.53;;;3.50;;
35306;SDS011;21420;52.196;21.416;2022-07-12T02:46:14;6.00;;;3.65;;
35306;SDS011;21420;52.196;21.416;2022-07-12T02:48:40;6.47;;;3.87;;
35306;SDS011;21420;52.196;21.416;2022-07-12T02:51:07;4.55;;;3.30;;
35306;SDS011;21420;52.196;21.416;2022-07-12T02:53:35;4.47;;;3.92;;
35306;SDS011;21420;52.196;21.416;2022-07-12T02:56:02;9.18;;;4.17;;
35306;SDS011;21420;52.196;21.416;2022-07-12T02:58:29;6.42;;;4.30;;
35306;SDS011;21420;52.196;21.416;2022-07-12T03:00:55;5.12;;;3.75;;
35306;SDS011;21420;52.196;21.416;2022-07-12T03:03:21;6.97;;;3.70;;
35306;SDS011;21420;52.196;21.416;2022-07-12T03:05:47;4.00;;;3.67;;
35306;SDS011;21420;52.196;21.416;2022-07-12T03:08:13;6.05;;;4.20;;
35306;SDS011;21420;52.196;21.416;2022-07-12T03:10:40;7.00;;;4.53;;
35306;SDS011;21420;52.196;21.416;2022-07-12T03:13:07;7.83;;;4.20;;
35306;SDS011;21420;52.196;21.416;2022-07-12T03:15:33;4.50;;;3.83;;
35306;SDS011;21420;52.196;21.416;2022-07-12T03:18:00;4.75;;;3.20;;
35306;SDS011;21420;52.196;21.416;2022-07-12T03:20:27;9.25;;;3.62;;
35306;SDS011;21420;52.196;21.416;2022-07-12T03:22:55;6.25;;;3.72;;
35306;SDS011;21420;52.196;21.416;2022-07-12T03:25:21;5.10;;;3.80;;
35306;SDS011;21420;52.196;21.416;2022-07-12T03:27:47;6.85;;;3.80;;
35306;SDS011;21420;52.196;21.416;2022-07-12T03:30:14;4.95;;;3.83;;
35306;SDS011;21420;52.196;21.416;2022-07-12T03:32:41;4.03;;;3.65;;
35306;SDS011;21420;52.196;21.416;2022-07-12T03:35:09;4.25;;;3.85;;
35306;SDS011;21420;52.196;21.416;2022-07-12T03:37:42;4.22;;;3.40;;
35306;SDS011;21420;52.196;21.416;2022-07-12T03:40:12;4.22;;;3.65;;
35306;SDS011;21420;52.196;21.416;2022-07-12T03:42:40;5.90;;;3.42;;
35306;SDS011;21420;52.196;21.416;2022-07-12T03:45:07;6.78;;;4.05;;
35306;SDS011;21420;52.196;21.416;2022-07-12T03:47:35;6.12;;;3.60;;
35306;SDS011;21420;52.196;21.416;2022-07-12T03:50:03;5.25;;;3.67;;
35306;SDS011;21420;52.196;21.416;2022-07-12T03:52:32;4.60;;;3.17;;
35306;SDS011;21420;52.196;21.416;2022-07-12T03:54:59;4.17;;;3.55;;
35306;SDS011;21420;52.196;21.416;2022-07-12T03:57:29;4.15;;;3.42;;
35306;SDS011;21420;52.196;21.416;2022-07-12T03:59:56;5.40;;;3.62;;
35306;SDS011;21420;52.196;21.416;2022-07-12T04:02:23;7.87;;;3.10;;
35306;SDS011;21420;52.196;21.416;2022-07-12T04:04:50;6.87;;;3.20;;
35306;SDS011;21420;52.196;21.416;2022-07-12T04:07:17;5.10;;;3.15;;
35306;SDS011;21420;52.196;21.416;2022-07-12T04:09:44;8.63;;;4.05;;
35306;SDS011;21420;52.196;21.416;2022-07-12T04:12:10;5.08;;;3.08;;
35306;SDS011;21420;52.196;21.416;2022-07-12T04:14:36;6.03;;;3.37;;
35306;SDS011;21420;52.196;21.416;2022-07-12T04:17:03;3.95;;;3.05;;
35306;SDS011;21420;52.196;21.416;2022-07-12T04:19:31;5.62;;;3.20;;
35306;SDS011;21420;52.196;21.416;2022-07-12T04:21:59;4.10;;;2.87;;
35306;SDS011;21420;52.196;21.416;2022-07-12T04:24:25;6.50;;;3.37;;
35306;SDS011;21420;52.196;21.416;2022-07-12T04:26:52;3.67;;;3.10;;
35306;SDS011;21420;52.196;21.416;2022-07-12T04:29:18;4.28;;;2.87;;
35306;SDS011;21420;52.196;21.416;2022-07-12T04:31:45;9.85;;;3.27;;
35306;SDS011;21420;52.196;21.416;2022-07-12T04:34:12;3.17;;;2.80;;
35306;SDS011;21420;52.196;21.416;2022-07-12T04:36:40;2.83;;;2.55;;
35306;SDS011;21420;52.196;21.416;2022-07-12T04:39:06;5.25;;;2.80;;
35306;SDS011;21420;52.196;21.416;2022-07-12T04:41:33;5.28;;;2.47;;
35306;SDS011;21420;52.196;21.416;2022-07-12T04:44:02;7.03;;;3.05;;
35306;SDS011;21420;52.196;21.416;2022-07-12T04:46:31;5.17;;;2.52;;
35306;SDS011;21420;52.196;21.416;2022-07-12T04:48:58;4.10;;;2.65;;
35306;SDS011;21420;52.196;21.416;2022-07-12T04:51:24;6.62;;;2.42;;
35306;SDS011;21420;52.196;21.416;2022-07-12T04:53:50;5.97;;;2.40;;
35306;SDS011;21420;52.196;21.416;2022-07-12T04:56:16;2.52;;;2.17;;
35306;SDS011;21420;52.196;21.416;2022-07-12T04:58:43;2.83;;;2.37;;
35306;SDS011;21420;52.196;21.416;2022-07-12T05:01:09;5.25;;;3.25;;
35306;SDS011;21420;52.196;21.416;2022-07-12T05:03:35;4.08;;;2.30;;
35306;SDS011;21420;52.196;21.416;2022-07-12T05:06:01;3.45;;;2.25;;
35306;SDS011;21420;52.196;21.416;2022-07-12T05:08:27;4.08;;;2.33;;
35306;SDS011;21420;52.196;21.416;2022-07-12T05:10:53;3.60;;;2.35;;
35306;SDS011;21420;52.196;21.416;2022-07-12T05:13:19;5.03;;;2.30;;
35306;SDS011;21420;52.196;21.416;2022-07-12T05:15:45;4.37;;;2.65;;
35306;SDS011;21420;52.196;21.416;2022-07-12T05:18:11;3.25;;;2.10;;
35306;SDS011;21420;52.196;21.416;2022-07-12T05:20:38;2.90;;;2.10;;
35306;SDS011;21420;52.196;21.416;2022-07-12T05:23:04;4.60;;;2.40;;
35306;SDS011;21420;52.196;21.416;2022-07-12T05:25:31;5.62;;;1.98;;
35306;SDS011;21420;52.196;21.416;2022-07-12T05:27:57;5.15;;;1.90;;
35306;SDS011;21420;52.196;21.416;2022-07-12T05:30:24;4.60;;;2.10;;
35306;SDS011;21420;52.196;21.416;2022-07-12T05:32:51;3.77;;;2.17;;
35306;SDS011;21420;52.196;21.416;2022-07-12T05:35:18;3.12;;;2.05;;
35306;SDS011;21420;52.196;21.416;2022-07-12T05:37:44;5.53;;;2.10;;
35306;SDS011;21420;52.196;21.416;2022-07-12T05:40:10;3.37;;;1.80;;
35306;SDS011;21420;52.196;21.416;2022-07-12T05:42:37;3.67;;;1.75;;
35306;SDS011;21420;52.196;21.416;2022-07-12T05:45:03;3.17;;;1.87;;
35306;SDS011;21420;52.196;21.416;2022-07-12T05:47:31;2.95;;;1.92;;
35306;SDS011;21420;52.196;21.416;2022-07-12T05:49:57;3.75;;;2.02;;
35306;SDS011;21420;52.196;21.416;2022-07-12T05:52:23;2.15;;;1.95;;
35306;SDS011;21420;52.196;21.416;2022-07-12T05:55:08;5.12;;;2.12;;
35306;SDS011;21420;52.196;21.416;2022-07-12T05:57:34;2.90;;;2.08;;
35306;SDS011;21420;52.196;21.416;2022-07-12T06:00:00;5.22;;;2.05;;
35306;SDS011;21420;52.196;21.416;2022-07-12T06:02:29;5.25;;;1.90;;
35306;SDS011;21420;52.196;21.416;2022-07-12T06:04:55;5.47;;;2.10;;
35306;SDS011;21420;52.196;21.416;2022-07-12T06:07:22;7.62;;;2.00;;
35306;SDS011;21420;52.196;21.416;2022-07-12T06:09:48;4.15;;;2.42;;
35306;SDS011;21420;52.196;21.416;2022-07-12T06:12:14;3.70;;;1.95;;
35306;SDS011;21420;52.196;21.416;2022-07-12T06:14:41;2.95;;;1.90;;
35306;SDS011;21420;52.196;21.416;2022-07-12T06:17:07;3.33;;;1.77;;
35306;SDS011;21420;52.196;21.416;2022-07-12T06:19:33;4.20;;;1.82;;
35306;SDS011;21420;52.196;21.416;2022-07-12T06:21:59;9.53;;;2.05;;
35306;SDS011;21420;52.196;21.416;2022-07-12T06:24:25;2.90;;;1.80;;
35306;SDS011;21420;52.196;21.416;2022-07-12T06:26:51;3.65;;;1.82;;
35306;SDS011;21420;52.196;21.416;2022-07-12T06:29:18;4.53;;;1.87;;
35306;SDS011;21420;52.196;21.416;2022-07-12T06:31:44;2.42;;;2.00;;
35306;SDS011;21420;52.196;21.416;2022-07-12T06:34:10;2.47;;;1.50;;
35306;SDS011;21420;52.196;21.416;2022-07-12T06:36:36;2.60;;;1.65;;
35306;SDS011;21420;52.196;21.416;2022-07-12T06:39:02;4.15;;;1.80;;
35306;SDS011;21420;52.196;21.416;2022-07-12T06:41:28;3.00;;;1.50;;
35306;SDS011;21420;52.196;21.416;2022-07-12T06:43:55;3.12;;;2.00;;
35306;SDS011;21420;52.196;21.416;2022-07-12T06:46:21;3.45;;;1.70;;
35306;SDS011;21420;52.196;21.416;2022-07-12T06:48:47;4.42;;;1.82;;
35306;SDS011;21420;52.196;21.416;2022-07-12T06:51:13;3.65;;;1.80;;
35306;SDS011;21420;52.196;21.416;2022-07-12T06:53:39;3.95;;;1.77;;
35306;SDS011;21420;52.196;21.416;2022-07-12T06:56:05;3.00;;;2.05;;
35306;SDS011;21420;52.196;21.416;2022-07-12T06:58:32;3.95;;;2.02;;
35306;SDS011;21420;52.196;21.416;2022-07-12T07:00:59;3.15;;;1.70;;
35306;SDS011;21420;52.196;21.416;2022-07-12T07:03:25;2.92;;;1.65;;
35306;SDS011;21420;52.196;21.416;2022-07-12T07:05:51;5.20;;;1.70;;
35306;SDS011;21420;52.196;21.416;2022-07-12T07:08:17;2.92;;;1.45;;
35306;SDS011;21420;52.196;21.416;2022-07-12T07:10:43;3.90;;;1.67;;
35306;SDS011;21420;52.196;21.416;2022-07-12T07:13:10;1.82;;;1.30;;
35306;SDS011;21420;52.196;21.416;2022-07-12T07:15:38;2.77;;;1.98;;
35306;SDS011;21420;52.196;21.416;2022-07-12T07:18:08;2.17;;;1.40;;
35306;SDS011;21420;52.196;21.416;2022-07-12T07:20:36;3.50;;;1.57;;
35306;SDS011;21420;52.196;21.416;2022-07-12T07:23:03;5.28;;;1.30;;
35306;SDS011;21420;52.196;21.416;2022-07-12T07:25:29;3.62;;;1.52;;
35306;SDS011;21420;52.196;21.416;2022-07-12T07:27:55;1.30;;;1.10;;
35306;SDS011;21420;52.196;21.416;2022-07-12T07:30:21;3.90;;;1.20;;
35306;SDS011;21420;52.196;21.416;2022-07-12T07:33:06;2.58;;;1.20;;
35306;SDS011;21420;52.196;21.416;2022-07-12T07:35:32;4.58;;;2.20;;
35306;SDS011;21420;52.196;21.416;2022-07-12T07:37:59;2.35;;;1.65;;
35306;SDS011;21420;52.196;21.416;2022-07-12T07:40:25;3.92;;;1.60;;
35306;SDS011;21420;52.196;21.416;2022-07-12T07:42:51;4.92;;;1.35;;
35306;SDS011;21420;52.196;21.416;2022-07-12T07:45:17;1.70;;;0.95;;
35306;SDS011;21420;52.196;21.416;2022-07-12T07:47:48;3.02;;;1.00;;
35306;SDS011;21420;52.196;21.416;2022-07-12T07:50:15;3.50;;;1.10;;
35306;SDS011;21420;52.196;21.416;2022-07-12T07:52:41;1.95;;;0.98;;
35306;SDS011;21420;52.196;21.416;2022-07-12T07:55:08;2.15;;;0.88;;
35306;SDS011;21420;52.196;21.416;2022-07-12T07:57:34;4.35;;;1.52;;
35306;SDS011;21420;52.196;21.416;2022-07-12T08:00:01;1.77;;;0.90;;
35306;SDS011;21420;52.196;21.416;2022-07-12T08:02:30;2.72;;;1.62;;
35306;SDS011;21420;52.196;21.416;2022-07-12T08:04:56;2.90;;;1.30;;
35306;SDS011;21420;52.196;21.416;2022-07-12T08:07:23;3.83;;;1.00;;
35306;SDS011;21420;52.196;21.416;2022-07-12T08:09:49;1.40;;;0.80;;
35306;SDS011;21420;52.196;21.416;2022-07-12T08:12:15;3.58;;;1.30;;
35306;SDS011;21420;52.196;21.416;2022-07-12T08:14:41;4.08;;;1.07;;
35306;SDS011;21420;52.196;21.416;2022-07-12T08:17:07;4.58;;;1.60;;
35306;SDS011;21420;52.196;21.416;2022-07-12T08:19:34;3.10;;;0.90;;
35306;SDS011;21420;52.196;21.416;2022-07-12T08:22:00;1.95;;;1.00;;
35306;SDS011;21420;52.196;21.416;2022-07-12T08:24:26;1.57;;;1.02;;
35306;SDS011;21420;52.196;21.416;2022-07-12T08:26:52;5.12;;;1.70;;
35306;SDS011;21420;52.196;21.416;2022-07-12T08:29:18;6.35;;;4.03;;
35306;SDS011;21420;52.196;21.416;2022-07-12T08:31:44;6.72;;;4.20;;
35306;SDS011;21420;52.196;21.416;2022-07-12T08:34:11;4.30;;;1.80;;
35306;SDS011;21420;52.196;21.416;2022-07-12T08:36:37;2.85;;;0.98;;
35306;SDS011;21420;52.196;21.416;2022-07-12T08:39:03;2.10;;;1.00;;
35306;SDS011;21420;52.196;21.416;2022-07-12T08:41:30;6.15;;;0.70;;
35306;SDS011;21420;52.196;21.416;2022-07-12T08:43:56;1.60;;;0.98;;
35306;SDS011;21420;52.196;21.416;2022-07-12T08:46:22;2.15;;;1.05;;
35306;SDS011;21420;52.196;21.416;2022-07-12T08:48:48;1.80;;;0.80;;
35306;SDS011;21420;52.196;21.416;2022-07-12T08:51:18;2.65;;;1.15;;
35306;SDS011;21420;52.196;21.416;2022-07-12T08:53:46;3.37;;;1.22;;
35306;SDS011;21420;52.196;21.416;2022-07-12T08:59:13;2.72;;;1.20;;
35306;SDS011;21420;52.196;21.416;2022-07-12T09:01:47;3.85;;;0.90;;
35306;SDS011;21420;52.196;21.416;2022-07-12T09:04:22;3.92;;;1.12;;
35306;SDS011;21420;52.196;21.416;2022-07-12T09:06:51;4.53;;;0.90;;
35306;SDS011;21420;52.196;21.416;2022-07-12T09:09:32;3.05;;;0.93;;
35306;SDS011;21420;52.196;21.416;2022-07-12T09:12:01;1.95;;;0.90;;
35306;SDS011;21420;52.196;21.416;2022-07-12T09:14:27;2.85;;;0.90;;
35306;SDS011;21420;52.196;21.416;2022-07-12T09:17:07;6.12;;;1.60;;
35306;SDS011;21420;52.196;21.416;2022-07-12T09:19:40;4.90;;;0.90;;
35306;SDS011;21420;52.196;21.416;2022-07-12T09:22:14;1.90;;;0.80;;
35306;SDS011;21420;52.196;21.416;2022-07-12T09:24:44;1.55;;;0.88;;
35306;SDS011;21420;52.196;21.416;2022-07-12T09:27:10;1.72;;;0.62;;
35306;SDS011;21420;52.196;21.416;2022-07-12T09:29:46;4.55;;;0.88;;
35306;SDS011;21420;52.196;21.416;2022-07-12T09:32:14;4.35;;;2.10;;
35306;SDS011;21420;52.196;21.416;2022-07-12T09:34:58;3.00;;;1.17;;
35306;SDS011;21420;52.196;21.416;2022-07-12T09:37:43;4.67;;;1.60;;
35306;SDS011;21420;52.196;21.416;2022-07-12T09:40:10;4.92;;;1.17;;
35306;SDS011;21420;52.196;21.416;2022-07-12T09:42:36;5.03;;;1.07;;
35306;SDS011;21420;52.196;21.416;2022-07-12T09:45:06;1.62;;;0.90;;
35306;SDS011;21420;52.196;21.416;2022-07-12T09:47:34;3.27;;;0.80;;
35306;SDS011;21420;52.196;21.416;2022-07-12T09:50:02;2.98;;;0.95;;
35306;SDS011;21420;52.196;21.416;2022-07-12T09:52:31;3.25;;;0.82;;
35306;SDS011;21420;52.196;21.416;2022-07-12T09:55:00;5.50;;;2.67;;
35306;SDS011;21420;52.196;21.416;2022-07-12T09:57:30;15.63;;;12.45;;
35306;SDS011;21420;52.196;21.416;2022-07-12T09:59:58;9.95;;;6.08;;
35306;SDS011;21420;52.196;21.416;2022-07-12T10:02:28;6.33;;;2.95;;
35306;SDS011;21420;52.196;21.416;2022-07-12T10:04:54;3.45;;;2.20;;
35306;SDS011;21420;52.196;21.416;2022-07-12T10:07:21;4.55;;;1.50;;
35306;SDS011;21420;52.196;21.416;2022-07-12T10:09:50;4.42;;;0.80;;
35306;SDS011;21420;52.196;21.416;2022-07-12T10:12:19;2.37;;;1.10;;
35306;SDS011;21420;52.196;21.416;2022-07-12T10:15:08;4.10;;;1.20;;
35306;SDS011;21420;52.196;21.416;2022-07-12T10:17:25;9.88;;;1.32;;
35306;SDS011;21420;52.196;21.416;2022-07-12T10:22:47;2.58;;;0.95;;
35306;SDS011;21420;52.196;21.416;2022-07-12T10:27:59;3.55;;;1.57;;
35306;SDS011;21420;52.196;21.416;2022-07-12T10:30:29;6.78;;;1.30;;
35306;SDS011;21420;52.196;21.416;2022-07-12T10:32:57;1.65;;;1.05;;
35306;SDS011;21420;52.196;21.416;2022-07-12T10:35:29;3.30;;;1.03;;
35306;SDS011;21420;52.196;21.416;2022-07-12T10:40:42;4.20;;;1.10;;
35306;SDS011;21420;52.196;21.416;2022-07-12T10:45:44;3.08;;;1.10;;
35306;SDS011;21420;52.196;21.416;2022-07-12T10:58:53;2.00;;;1.00;;
35306;SDS011;21420;52.196;21.416;2022-07-12T11:01:23;4.20;;;0.95;;
35306;SDS011;21420;52.196;21.416;2022-07-12T11:03:53;4.92;;;1.15;;
35306;SDS011;21420;52.196;21.416;2022-07-12T11:06:23;3.08;;;1.30;;
35306;SDS011;21420;52.196;21.416;2022-07-12T11:11:34;5.90;;;1.30;;
35306;SDS011;21420;52.196;21.416;2022-07-12T11:14:12;3.45;;;1.10;;
35306;SDS011;21420;52.196;21.416;2022-07-12T11:16:47;5.75;;;0.95;;
35306;SDS011;21420;52.196;21.416;2022-07-12T11:19:27;2.87;;;1.25;;
35306;SDS011;21420;52.196;21.416;2022-07-12T11:21:51;3.50;;;1.12;;
35306;SDS011;21420;52.196;21.416;2022-07-12T11:24:26;7.70;;;1.10;;
35306;SDS011;21420;52.196;21.416;2022-07-12T11:26:55;3.33;;;1.40;;
35306;SDS011;21420;52.196;21.416;2022-07-12T11:29:23;2.77;;;1.25;;
35306;SDS011;21420;52.196;21.416;2022-07-12T11:31:58;5.70;;;0.90;;
35306;SDS011;21420;52.196;21.416;2022-07-12T11:34:28;5.72;;;1.00;;
35306;SDS011;21420;52.196;21.416;2022-07-12T11:36:56;1.25;;;0.82;;
35306;SDS011;21420;52.196;21.416;2022-07-12T11:39:37;5.28;;;0.80;;
35306;SDS011;21420;52.196;21.416;2022-07-12T11:42:05;2.22;;;0.70;;
35306;SDS011;21420;52.196;21.416;2022-07-12T11:44:49;1.35;;;0.70;;
35306;SDS011;21420;52.196;21.416;2022-07-12T11:47:17;3.27;;;0.80;;
35306;SDS011;21420;52.196;21.416;2022-07-12T11:49:47;2.17;;;0.80;;
35306;SDS011;21420;52.196;21.416;2022-07-12T11:52:19;3.30;;;1.65;;
35306;SDS011;21420;52.196;21.416;2022-07-12T11:54:49;2.20;;;0.90;;
35306;SDS011;21420;52.196;21.416;2022-07-12T11:57:23;2.00;;;0.70;;
35306;SDS011;21420;52.196;21.416;2022-07-12T11:59:49;3.02;;;0.78;;
35306;SDS011;21420;52.196;21.416;2022-07-12T12:02:16;7.25;;;0.70;;
35306;SDS011;21420;52.196;21.416;2022-07-12T12:04:44;2.27;;;0.88;;
35306;SDS011;21420;52.196;21.416;2022-07-12T12:07:12;6.00;;;0.70;;
35306;SDS011;21420;52.196;21.416;2022-07-12T12:12:36;1.92;;;0.60;;
35306;SDS011;21420;52.196;21.416;2022-07-12T12:15:15;3.27;;;0.88;;
35306;SDS011;21420;52.196;21.416;2022-07-12T12:20:21;0.70;;;0.40;;
35306;SDS011;21420;52.196;21.416;2022-07-12T12:22:52;3.65;;;0.70;;
35306;SDS011;21420;52.196;21.416;2022-07-12T12:25:20;0.78;;;0.70;;
35306;SDS011;21420;52.196;21.416;2022-07-12T12:27:48;3.05;;;0.57;;
35306;SDS011;21420;52.196;21.416;2022-07-12T12:30:20;4.45;;;0.60;;
35306;SDS011;21420;52.196;21.416;2022-07-12T12:32:48;3.37;;;0.60;;
35306;SDS011;21420;52.196;21.416;2022-07-12T12:35:20;2.75;;;1.17;;
35306;SDS011;21420;52.196;21.416;2022-07-12T12:37:59;5.35;;;2.22;;
35306;SDS011;21420;52.196;21.416;2022-07-12T12:40:30;1.55;;;1.15;;
35306;SDS011;21420;52.196;21.416;2022-07-12T12:43:13;1.25;;;0.78;;
35306;SDS011;21420;52.196;21.416;2022-07-12T12:48:22;3.62;;;0.80;;
35306;SDS011;21420;52.196;21.416;2022-07-12T12:51:03;2.35;;;0.90;;
35306;SDS011;21420;52.196;21.416;2022-07-12T12:53:26;3.52;;;0.82;;
35306;SDS011;21420;52.196;21.416;2022-07-12T12:55:51;1.02;;;0.60;;
35306;SDS011;21420;52.196;21.416;2022-07-12T12:58:20;2.77;;;0.70;;
35306;SDS011;21420;52.196;21.416;2022-07-12T13:00:50;1.27;;;0.40;;
35306;SDS011;21420;52.196;21.416;2022-07-12T13:03:19;3.98;;;0.68;;
35306;SDS011;21420;52.196;21.416;2022-07-12T13:05:49;2.12;;;0.75;;
35306;SDS011;21420;52.196;21.416;2022-07-12T13:08:16;1.40;;;0.70;;
35306;SDS011;21420;52.196;21.416;2022-07-12T13:10:43;5.53;;;0.70;;
35306;SDS011;21420;52.196;21.416;2022-07-12T13:13:11;2.25;;;0.53;;
35306;SDS011;21420;52.196;21.416;2022-07-12T13:15:38;1.55;;;0.68;;
35306;SDS011;21420;52.196;21.416;2022-07-12T13:18:05;3.17;;;0.68;;
35306;SDS011;21420;52.196;21.416;2022-07-12T13:20:32;2.55;;;0.40;;
35306;SDS011;21420;52.196;21.416;2022-07-12T13:22:59;2.85;;;0.72;;
35306;SDS011;21420;52.196;21.416;2022-07-12T13:25:25;0.88;;;0.75;;
35306;SDS011;21420;52.196;21.416;2022-07-12T13:27:52;4.15;;;0.70;;
35306;SDS011;21420;52.196;21.416;2022-07-12T13:30:19;0.33;;;0.30;;
35306;SDS011;21420;52.196;21.416;2022-07-12T13:32:46;3.47;;;0.60;;
35306;SDS011;21420;52.196;21.416;2022-07-12T13:35:13;3.52;;;0.53;;
35306;SDS011;21420;52.196;21.416;2022-07-12T13:37:40;4.62;;;1.10;;
35306;SDS011;21420;52.196;21.416;2022-07-12T13:40:08;3.05;;;0.50;;
35306;SDS011;21420;52.196;21.416;2022-07-12T13:42:43;2.30;;;0.50;;
35306;SDS011;21420;52.196;21.416;2022-07-12T13:45:16;1.92;;;0.53;;
35306;SDS011;21420;52.196;21.416;2022-07-12T13:47:45;2.58;;;0.55;;
35306;SDS011;21420;52.196;21.416;2022-07-12T13:50:13;3.90;;;0.90;;
35306;SDS011;21420;52.196;21.416;2022-07-12T13:52:43;2.52;;;0.60;;
35306;SDS011;21420;52.196;21.416;2022-07-12T13:55:11;1.42;;;0.80;;
35306;SDS011;21420;52.196;21.416;2022-07-12T13:57:40;2.98;;;0.68;;
35306;SDS011;21420;52.196;21.416;2022-07-12T14:00:11;3.58;;;0.50;;
35306;SDS011;21420;52.196;21.416;2022-07-12T14:02:39;2.25;;;0.75;;
35306;SDS011;21420;52.196;21.416;2022-07-12T14:05:12;7.45;;;1.45;;
35306;SDS011;21420;52.196;21.416;2022-07-12T14:07:41;5.30;;;0.80;;
35306;SDS011;21420;52.196;21.416;2022-07-12T14:10:09;3.47;;;0.70;;
35306;SDS011;21420;52.196;21.416;2022-07-12T14:12:37;1.07;;;0.70;;
35306;SDS011;21420;52.196;21.416;2022-07-12T14:15:04;9.95;;;1.25;;
35306;SDS011;21420;52.196;21.416;2022-07-12T14:17:44;1.65;;;0.62;;
35306;SDS011;21420;52.196;21.416;2022-07-12T14:20:19;3.00;;;0.68;;
35306;SDS011;21420;52.196;21.416;2022-07-12T14:22:46;1.60;;;0.60;;
35306;SDS011;21420;52.196;21.416;2022-07-12T14:25:18;2.83;;;0.60;;
35306;SDS011;21420;52.196;21.416;2022-07-12T14:27:45;4.92;;;1.10;;
35306;SDS011;21420;52.196;21.416;2022-07-12T14:30:12;2.20;;;0.65;;
35306;SDS011;21420;52.196;21.416;2022-07-12T14:32:39;5.50;;;1.02;;
35306;SDS011;21420;52.196;21.416;2022-07-12T14:35:06;1.30;;;0.78;;
35306;SDS011;21420;52.196;21.416;2022-07-12T14:37:35;2.58;;;0.80;;
35306;SDS011;21420;52.196;21.416;2022-07-12T14:40:02;1.10;;;0.88;;
35306;SDS011;21420;52.196;21.416;2022-07-12T14:44:58;0.93;;;0.65;;
35306;SDS011;21420;52.196;21.416;2022-07-12T14:47:24;6.45;;;0.70;;
35306;SDS011;21420;52.196;21.416;2022-07-12T14:49:51;1.75;;;0.57;;
35306;SDS011;21420;52.196;21.416;2022-07-12T14:52:19;2.90;;;0.57;;
35306;SDS011;21420;52.196;21.416;2022-07-12T14:54:46;3.98;;;0.90;;
35306;SDS011;21420;52.196;21.416;2022-07-12T14:57:12;1.17;;;0.55;;
35306;SDS011;21420;52.196;21.416;2022-07-12T14:59:38;3.85;;;0.60;;
35306;SDS011;21420;52.196;21.416;2022-07-12T15:02:04;3.33;;;0.72;;
35306;SDS011;21420;52.196;21.416;2022-07-12T15:04:30;1.42;;;0.70;;
35306;SDS011;21420;52.196;21.416;2022-07-12T15:06:57;1.50;;;0.70;;
35306;SDS011;21420;52.196;21.416;2022-07-12T15:09:23;1.95;;;0.80;;
35306;SDS011;21420;52.196;21.416;2022-07-12T15:11:49;2.50;;;0.88;;
35306;SDS011;21420;52.196;21.416;2022-07-12T15:14:16;1.85;;;0.62;;
35306;SDS011;21420;52.196;21.416;2022-07-12T15:16:42;3.37;;;0.50;;